Coram, Montana
Current Conditions -  °F | °C
As of 1:55 AM on Saturday 25 Oct 2014 (Local Time) from KGPI Reporting Station
Overcast Overcast  
Wind Chill: 43°   Ceiling: 5500
Heat Index: 43°   Visibility: 10mi
Dew Point: 41°   Wind: 3mph
Humidity: 93%   Direction: 350°N
Pressure: 30.02"   Gusts: NA
Location:  48.42°N, 114.05°W
Report Text: KGPI 250755Z 35003KT 10SM BKN055 OVC070 06/05 A3002 RMK AO2 RAE19 SLP175 P0001 T00610050
Loading
Personal Weather Stations






























Interactive Weather Map
Tropical Storm Tracking
New forecast layout! Learn more

10-Day Weather Forecast

Advertisements
Track Severe Weather on mobile